createdAt,value
2023-03-28T00:00:53.418Z,0.00
2023-03-28T00:01:53.387Z,0.00
2023-03-28T00:02:53.414Z,0.00
2023-03-28T00:03:53.380Z,0.00
2023-03-28T00:04:53.376Z,0.00
2023-03-28T00:05:53.409Z,0.00
2023-03-28T00:06:53.336Z,0.00
2023-03-28T00:07:53.322Z,0.00
2023-03-28T00:08:53.343Z,0.00
2023-03-28T00:09:53.302Z,0.00
2023-03-28T00:10:53.304Z,0.00
2023-03-28T00:11:53.282Z,0.00
2023-03-28T00:12:53.270Z,0.00
2023-03-28T00:13:53.258Z,0.00
2023-03-28T00:14:53.254Z,0.00
2023-03-28T00:15:53.276Z,0.00
2023-03-28T00:16:53.237Z,0.00
2023-03-28T00:17:53.226Z,0.00
2023-03-28T00:18:53.210Z,0.00
2023-03-28T00:19:53.194Z,0.00
2023-03-28T00:20:53.229Z,0.00
2023-03-28T00:21:53.172Z,0.00
2023-03-28T00:22:53.165Z,0.00
2023-03-28T00:23:53.156Z,0.00
2023-03-28T00:24:53.144Z,0.00
2023-03-28T00:25:53.149Z,0.00
2023-03-28T00:26:53.125Z,0.00
2023-03-28T00:27:53.110Z,0.00
2023-03-28T00:28:53.118Z,0.00
2023-03-28T00:29:53.089Z,0.00
2023-03-28T00:30:53.140Z,0.00
2023-03-28T00:31:53.079Z,0.00
2023-03-28T00:32:53.132Z,0.00
2023-03-28T00:33:53.047Z,0.00
2023-03-28T00:34:53.044Z,0.00
2023-03-28T00:35:53.071Z,0.00
2023-03-28T00:36:53.036Z,0.00
2023-03-28T00:37:53.007Z,0.00
2023-03-28T00:38:52.992Z,0.00
2023-03-28T00:39:52.983Z,0.00
2023-03-28T00:40:52.992Z,0.00
2023-03-28T00:41:52.963Z,0.00
2023-03-28T00:42:52.952Z,0.00
2023-03-28T00:43:52.944Z,0.00
2023-03-28T00:44:52.937Z,0.00
2023-03-28T00:46:02.651Z,0.00
2023-03-28T00:46:53.956Z,0.00
2023-03-28T00:47:52.946Z,0.00
2023-03-28T00:48:52.890Z,0.00
2023-03-28T00:49:52.879Z,0.00
2023-03-28T00:50:52.879Z,0.00
2023-03-28T00:51:52.863Z,0.00
2023-03-28T00:52:52.869Z,0.00
2023-03-28T00:53:52.836Z,0.00
2023-03-28T00:54:52.824Z,0.00
2023-03-28T00:55:52.876Z,0.00
2023-03-28T00:56:52.852Z,0.00
2023-03-28T00:57:52.795Z,0.00
2023-03-28T00:58:52.782Z,0.00
2023-03-28T00:59:52.772Z,0.00
2023-03-28T01:00:52.788Z,0.00
2023-03-28T01:01:52.865Z,0.00
2023-03-28T01:02:52.862Z,0.00
2023-03-28T01:03:52.754Z,0.00
2023-03-28T01:04:52.728Z,0.00
2023-03-28T01:05:52.725Z,0.00
2023-03-28T01:06:52.703Z,0.00
2023-03-28T01:07:52.681Z,0.00
2023-03-28T01:08:52.701Z,0.00
2023-03-28T01:09:52.657Z,0.00
2023-03-28T01:10:52.667Z,0.00
2023-03-28T01:11:52.639Z,0.00
2023-03-28T01:12:52.632Z,0.00
2023-03-28T01:13:52.618Z,0.00
2023-03-28T01:14:52.605Z,0.00
2023-03-28T01:15:52.635Z,0.00
2023-03-28T01:16:52.593Z,0.00
2023-03-28T01:17:52.775Z,0.00
2023-03-28T01:18:52.564Z,0.00
2023-03-28T01:19:52.554Z,0.00
2023-03-28T01:20:52.557Z,0.00
2023-03-28T01:21:52.530Z,0.00
2023-03-28T01:22:56.305Z,0.00
2023-03-28T01:23:52.525Z,0.00
2023-03-28T01:24:53.517Z,0.00
2023-03-28T01:25:52.595Z,0.00
2023-03-28T01:26:52.492Z,0.00
2023-03-28T01:27:52.508Z,0.00
2023-03-28T01:28:52.455Z,0.00
2023-03-28T01:29:52.445Z,0.00
2023-03-28T01:30:52.435Z,0.00
2023-03-28T01:31:52.507Z,0.00
2023-03-28T01:32:52.433Z,0.00
2023-03-28T01:33:52.406Z,0.00
2023-03-28T01:34:52.389Z,0.00
2023-03-28T01:35:52.407Z,0.00
2023-03-28T01:36:52.392Z,0.00
2023-03-28T01:37:52.356Z,0.00
2023-03-28T01:38:52.350Z,0.00
2023-03-28T01:39:52.339Z,0.00
2023-03-28T01:40:52.350Z,0.00
2023-03-28T01:41:52.346Z,0.00
2023-03-28T01:42:52.329Z,0.00
2023-03-28T01:43:52.299Z,0.00
2023-03-28T01:44:52.283Z,0.00
2023-03-28T01:45:52.340Z,0.00
2023-03-28T01:46:52.314Z,0.00
2023-03-28T01:47:52.265Z,0.00
2023-03-28T01:48:52.244Z,0.00
2023-03-28T01:49:52.230Z,0.00
2023-03-28T01:50:52.219Z,0.00
2023-03-28T01:51:52.223Z,0.00
2023-03-28T01:52:52.197Z,0.00
2023-03-28T01:53:52.211Z,0.00
2023-03-28T01:54:52.175Z,0.00
2023-03-28T01:55:52.193Z,0.00
2023-03-28T01:56:52.266Z,0.00
2023-03-28T01:57:52.142Z,0.00
2023-03-28T01:58:52.134Z,0.00
2023-03-28T01:59:52.122Z,0.00
2023-03-28T02:00:52.155Z,0.00
2023-03-28T02:01:52.111Z,0.00
2023-03-28T02:02:52.176Z,0.00
2023-03-28T02:03:52.080Z,0.00
2023-03-28T02:04:52.099Z,0.00
2023-03-28T02:05:53.060Z,0.00
2023-03-28T02:06:52.077Z,0.00
2023-03-28T02:07:52.053Z,0.00
2023-03-28T02:08:52.025Z,0.00
2023-03-28T02:09:52.019Z,0.00
2023-03-28T02:10:52.009Z,0.00
2023-03-28T02:11:52.013Z,0.00
2023-03-28T02:12:52.010Z,0.00
2023-03-28T02:13:51.989Z,0.00
2023-03-28T02:14:51.968Z,0.00
2023-03-28T02:15:51.957Z,0.00
2023-03-28T02:16:52.012Z,0.00
2023-03-28T02:17:52.043Z,0.00
2023-03-28T02:18:51.929Z,0.00
2023-03-28T02:19:51.923Z,0.00
2023-03-28T02:20:51.907Z,0.00
2023-03-28T02:21:51.908Z,0.00
2023-03-28T02:22:51.884Z,0.00
2023-03-28T02:23:51.885Z,0.00
2023-03-28T02:24:51.930Z,0.00
2023-03-28T02:25:51.854Z,0.00
2023-03-28T02:26:51.858Z,0.00
2023-03-28T02:27:51.842Z,0.00
2023-03-28T02:28:51.842Z,0.00
2023-03-28T02:29:51.816Z,0.00
2023-03-28T02:30:51.813Z,0.00
2023-03-28T02:31:51.858Z,0.00
2023-03-28T02:32:51.842Z,0.00
2023-03-28T02:33:51.776Z,0.00
2023-03-28T02:34:51.760Z,0.00
2023-03-28T02:35:51.809Z,0.00
2023-03-28T02:36:51.752Z,0.00
2023-03-28T02:37:51.734Z,0.00
2023-03-28T02:38:51.729Z,0.00
2023-03-28T02:39:51.785Z,0.00
2023-03-28T02:40:51.726Z,0.00
2023-03-28T02:41:51.736Z,0.00
2023-03-28T02:42:51.717Z,0.00
2023-03-28T02:43:51.708Z,0.00
2023-03-28T02:44:51.718Z,0.00
2023-03-28T02:45:51.730Z,0.00
2023-03-28T02:46:51.697Z,0.00
2023-03-28T02:47:51.661Z,0.00
2023-03-28T02:48:51.637Z,0.00
2023-03-28T02:49:51.614Z,0.00
2023-03-28T02:50:51.659Z,0.00
2023-03-28T02:51:51.600Z,0.00
2023-03-28T02:52:51.572Z,0.00
2023-03-28T02:53:51.567Z,0.00
2023-03-28T02:54:51.554Z,0.00
2023-03-28T02:55:51.545Z,0.00
2023-03-28T02:56:51.569Z,0.00
2023-03-28T02:57:51.520Z,0.00
2023-03-28T02:58:51.509Z,0.00
2023-03-28T02:59:51.500Z,0.00
2023-03-28T03:00:51.507Z,0.00
2023-03-28T03:01:51.546Z,0.00
2023-03-28T03:02:51.618Z,0.00
2023-03-28T03:03:51.478Z,0.00
2023-03-28T03:04:51.446Z,0.00
2023-03-28T03:05:51.446Z,0.00
2023-03-28T03:06:51.447Z,0.00
2023-03-28T03:07:51.429Z,0.00
2023-03-28T03:08:51.404Z,0.00
2023-03-28T03:09:51.394Z,0.00
2023-03-28T03:10:51.399Z,0.00
2023-03-28T03:11:51.406Z,0.00
2023-03-28T03:12:51.365Z,0.00
2023-03-28T03:13:51.353Z,0.00
2023-03-28T03:14:51.343Z,0.00
2023-03-28T03:15:51.377Z,0.00
2023-03-28T03:16:51.383Z,0.00
2023-03-28T03:17:51.335Z,0.00
2023-03-28T03:18:51.298Z,0.00
2023-03-28T03:19:51.289Z,0.00
2023-03-28T03:20:51.275Z,0.00
2023-03-28T03:21:51.284Z,0.00
2023-03-28T03:22:51.266Z,0.00
2023-03-28T03:23:51.246Z,0.00
2023-03-28T03:24:51.269Z,0.00
2023-03-28T03:25:51.222Z,0.00
2023-03-28T03:26:51.240Z,0.00
2023-03-28T03:27:51.203Z,0.00
2023-03-28T03:28:51.193Z,0.00
2023-03-28T03:29:51.230Z,0.00
2023-03-28T03:30:51.177Z,0.00
2023-03-28T03:31:51.249Z,0.00
2023-03-28T03:32:51.210Z,0.00
2023-03-28T03:33:51.154Z,0.00
2023-03-28T03:34:51.126Z,0.00
2023-03-28T03:35:51.135Z,0.00
2023-03-28T03:36:51.119Z,0.00
2023-03-28T03:37:51.101Z,0.00
2023-03-28T03:38:51.083Z,0.00
2023-03-28T03:39:51.073Z,0.00
2023-03-28T03:40:51.079Z,0.00
2023-03-28T03:41:51.055Z,0.00
2023-03-28T03:42:51.042Z,0.00
2023-03-28T03:43:51.037Z,0.00
2023-03-28T03:44:51.020Z,0.00
2023-03-28T03:45:51.034Z,0.00
2023-03-28T03:46:51.005Z,0.00
2023-03-28T03:47:51.015Z,0.00
2023-03-28T03:48:51.004Z,0.00
2023-03-28T03:49:50.975Z,0.00
2023-03-28T03:50:50.973Z,0.00
2023-03-28T03:51:50.966Z,0.00
2023-03-28T03:52:50.935Z,0.00
2023-03-28T03:53:50.939Z,0.00
2023-03-28T03:54:50.912Z,0.00
2023-03-28T03:55:50.902Z,0.00
2023-03-28T03:56:50.950Z,0.00
2023-03-28T03:57:50.884Z,0.00
2023-03-28T03:58:50.869Z,0.00
2023-03-28T03:59:50.888Z,0.00
2023-03-28T04:00:50.875Z,0.00
2023-03-28T04:01:50.874Z,0.00
2023-03-28T04:02:50.840Z,0.00
2023-03-28T04:03:50.824Z,0.00
2023-03-28T04:04:50.849Z,0.00
2023-03-28T04:05:50.801Z,0.00
2023-03-28T04:06:50.816Z,0.00
2023-03-28T04:07:50.779Z,0.00
2023-03-28T04:08:50.769Z,0.00
2023-03-28T04:09:50.757Z,0.00
2023-03-28T04:10:50.758Z,0.00
2023-03-28T04:11:50.747Z,0.00
2023-03-28T04:12:50.721Z,0.00
2023-03-28T04:13:50.715Z,0.00
2023-03-28T04:14:50.711Z,0.00
2023-03-28T04:15:50.734Z,4.00
2023-03-28T04:16:50.681Z,4.00
2023-03-28T04:17:50.737Z,4.00
2023-03-28T04:18:50.816Z,4.00
2023-03-28T04:19:50.649Z,0.00
2023-03-28T04:20:50.691Z,0.00
2023-03-28T04:21:50.648Z,4.00
2023-03-28T04:22:50.616Z,0.00
2023-03-28T04:23:50.609Z,4.00
2023-03-28T04:24:50.596Z,4.00
2023-03-28T04:25:50.585Z,4.00
2023-03-28T04:26:50.601Z,4.00
2023-03-28T04:27:50.568Z,8.00
2023-03-28T04:28:50.553Z,8.00
2023-03-28T04:29:50.553Z,8.00
2023-03-28T04:30:50.534Z,12.00
2023-03-28T04:31:50.663Z,12.00
2023-03-28T04:32:50.631Z,16.00
2023-03-28T04:33:50.509Z,16.00
2023-03-28T04:34:50.501Z,20.00
2023-03-28T04:35:50.540Z,24.00
2023-03-28T04:36:50.512Z,28.00
2023-03-28T04:37:50.475Z,32.00
2023-03-28T04:38:50.452Z,32.00
2023-03-28T04:39:50.445Z,36.00
2023-03-28T04:40:50.431Z,44.00
2023-03-28T04:41:50.449Z,48.00
2023-03-28T04:42:50.440Z,52.00
2023-03-28T04:43:50.409Z,60.00
2023-03-28T04:44:50.390Z,68.00
2023-03-28T04:45:50.425Z,76.00
2023-03-28T04:46:50.370Z,88.00
2023-03-28T04:47:50.380Z,92.00
2023-03-28T04:48:56.373Z,100.00
2023-03-28T04:49:51.345Z,108.00
2023-03-28T04:50:50.341Z,120.00
2023-03-28T04:51:50.349Z,124.00
2023-03-28T04:52:50.351Z,136.00
2023-03-28T04:53:50.295Z,140.00
2023-03-28T04:54:50.284Z,144.00
2023-03-28T04:55:50.405Z,152.00
2023-03-28T04:56:50.359Z,156.00
2023-03-28T04:57:50.302Z,168.00
2023-03-28T04:58:50.253Z,184.00
2023-03-28T04:59:50.240Z,204.00
2023-03-28T05:00:50.220Z,228.00
2023-03-28T05:01:50.246Z,248.00
2023-03-28T05:02:50.342Z,264.00
2023-03-28T05:03:50.221Z,268.00
2023-03-28T05:04:50.180Z,276.00
2023-03-28T05:05:50.180Z,264.00
2023-03-28T05:06:50.176Z,280.00
2023-03-28T05:07:50.196Z,308.00
2023-03-28T05:08:50.162Z,340.00
2023-03-28T05:09:50.130Z,380.00
2023-03-28T05:10:50.142Z,424.00
2023-03-28T05:11:50.112Z,456.00
2023-03-28T05:12:50.113Z,584.00
2023-03-28T05:13:50.090Z,620.00
2023-03-28T05:14:50.068Z,596.00
2023-03-28T05:15:50.058Z,668.00
2023-03-28T05:16:50.102Z,696.00
2023-03-28T05:17:50.124Z,760.00
2023-03-28T05:18:50.032Z,940.00
2023-03-28T05:19:50.018Z,1028.00
2023-03-28T05:20:50.010Z,1072.00
2023-03-28T05:21:50.002Z,1184.00
2023-03-28T05:22:49.997Z,988.00
2023-03-28T05:23:51.780Z,912.00
2023-03-28T05:24:50.043Z,808.00
2023-03-28T05:25:49.952Z,684.00
2023-03-28T05:26:49.953Z,600.00
2023-03-28T05:27:49.962Z,536.00
2023-03-28T05:28:49.919Z,372.00
2023-03-28T05:29:49.916Z,372.00
2023-03-28T05:30:49.898Z,460.00
2023-03-28T05:31:49.914Z,596.00
2023-03-28T05:32:49.952Z,700.00
2023-03-28T05:33:49.870Z,816.00
2023-03-28T05:34:49.855Z,892.00
2023-03-28T05:35:49.876Z,964.00
2023-03-28T05:36:49.834Z,1048.00
2023-03-28T05:37:49.865Z,1172.00
2023-03-28T05:38:49.811Z,1596.00
2023-03-28T05:39:49.816Z,1664.00
2023-03-28T05:40:49.994Z,1656.00
2023-03-28T05:41:49.789Z,1940.00
2023-03-28T05:42:49.797Z,1904.00
2023-03-28T05:43:49.761Z,1952.00
2023-03-28T05:44:49.763Z,2116.00
2023-03-28T05:45:49.787Z,2880.00
2023-03-28T05:46:49.728Z,2552.00
2023-03-28T05:47:49.800Z,3036.00
2023-03-28T05:48:50.110Z,3012.00
2023-03-28T05:49:49.702Z,4056.00
2023-03-28T05:50:49.722Z,4004.00
2023-03-28T05:51:49.685Z,3584.00
2023-03-28T05:52:49.727Z,4440.00
2023-03-28T05:53:49.656Z,5740.00
2023-03-28T05:54:50.298Z,7172.00
2023-03-28T05:55:49.665Z,7504.00
2023-03-28T05:56:49.691Z,7824.00
2023-03-28T05:57:49.615Z,7744.00
2023-03-28T05:58:49.607Z,7068.00
2023-03-28T05:59:49.626Z,6336.00
2023-03-28T06:00:49.593Z,5880.00
2023-03-28T06:01:49.580Z,6236.00
2023-03-28T06:02:49.620Z,4216.00
2023-03-28T06:03:49.632Z,6572.00
2023-03-28T06:04:49.593Z,6768.00
2023-03-28T06:05:49.571Z,6676.00
2023-03-28T06:06:49.516Z,7104.00
2023-03-28T06:07:49.531Z,6476.00
2023-03-28T06:08:49.496Z,6332.00
2023-03-28T06:09:49.488Z,8644.00
2023-03-28T06:10:49.472Z,9108.00
2023-03-28T06:11:49.461Z,8392.00
2023-03-28T06:12:49.540Z,8976.00
2023-03-28T06:13:49.458Z,9296.00
2023-03-28T06:14:49.443Z,4248.00
2023-03-28T06:15:49.420Z,8980.00
2023-03-28T06:16:49.473Z,8552.00
2023-03-28T06:17:49.460Z,9360.00
2023-03-28T06:18:49.389Z,9808.00
2023-03-28T06:19:49.416Z,10204.00
2023-03-28T06:20:49.377Z,10468.00
2023-03-28T06:21:49.356Z,10216.00
2023-03-28T06:22:49.351Z,9952.00
2023-03-28T06:23:49.332Z,10308.00
2023-03-28T06:24:49.345Z,11276.00
2023-03-28T06:25:49.313Z,9464.00
2023-03-28T06:26:49.321Z,11024.00
2023-03-28T06:27:49.315Z,8828.00
2023-03-28T06:28:49.303Z,8724.00
2023-03-28T06:29:49.265Z,9592.00
2023-03-28T06:30:49.261Z,10232.00
2023-03-28T06:31:49.301Z,10944.00
2023-03-28T06:32:49.297Z,11212.00
2023-03-28T06:33:49.233Z,9708.00
2023-03-28T06:34:49.213Z,9756.00
2023-03-28T06:35:49.298Z,10368.00
2023-03-28T06:36:49.192Z,10340.00
2023-03-28T06:37:49.193Z,9660.00
2023-03-28T06:38:49.240Z,8280.00
2023-03-28T06:39:49.159Z,9688.00
2023-03-28T06:40:49.165Z,15744.00
2023-03-28T06:41:49.143Z,19072.00
2023-03-28T06:42:49.137Z,16704.00
2023-03-28T06:43:49.126Z,14624.00
2023-03-28T06:44:49.130Z,14176.00
2023-03-28T06:45:49.125Z,15456.00
2023-03-28T06:46:49.161Z,15488.00
2023-03-28T06:47:49.122Z,14816.00
2023-03-28T06:48:49.068Z,14208.00
2023-03-28T06:49:49.052Z,12328.00
2023-03-28T06:50:49.077Z,16864.00
2023-03-28T06:51:49.048Z,18112.00
2023-03-28T06:52:49.031Z,19456.00
2023-03-28T06:53:49.016Z,18848.00
2023-03-28T06:54:49.003Z,19552.00
2023-03-28T06:55:48.985Z,19968.00
2023-03-28T06:56:49.009Z,19968.00
2023-03-28T06:57:48.983Z,19872.00
2023-03-28T06:58:48.956Z,19168.00
2023-03-28T06:59:48.941Z,17536.00
2023-03-28T07:00:48.952Z,18208.00
2023-03-28T07:01:48.973Z,18464.00
2023-03-28T07:02:56.037Z,19008.00
2023-03-28T07:03:51.978Z,21376.00
2023-03-28T07:04:48.898Z,23840.00
2023-03-28T07:05:48.886Z,25376.00
2023-03-28T07:06:48.881Z,26528.00
2023-03-28T07:07:48.886Z,26560.00
2023-03-28T07:08:48.886Z,27808.00
2023-03-28T07:09:48.860Z,28608.00
2023-03-28T07:10:48.834Z,29472.00
2023-03-28T07:11:48.824Z,29664.00
2023-03-28T07:12:48.832Z,29632.00
2023-03-28T07:13:48.799Z,32000.00
2023-03-28T07:14:48.817Z,33120.00
2023-03-28T07:15:48.794Z,33696.00
2023-03-28T07:16:48.831Z,34688.00
2023-03-28T07:17:48.777Z,33792.00
2023-03-28T07:18:48.746Z,34368.00
2023-03-28T07:19:48.734Z,34048.00
2023-03-28T07:20:57.897Z,32992.00
2023-03-28T07:21:49.729Z,33504.00
2023-03-28T07:22:48.713Z,34560.00
2023-03-28T07:23:48.697Z,35040.00
2023-03-28T07:24:48.684Z,35616.00
2023-03-28T07:25:48.675Z,37600.00
2023-03-28T07:26:48.660Z,38912.00
2023-03-28T07:27:48.699Z,40256.00
2023-03-28T07:28:48.666Z,38304.00
2023-03-28T07:29:48.626Z,37216.00
2023-03-28T07:30:48.620Z,36448.00
2023-03-28T07:31:48.655Z,35456.00
2023-03-28T07:32:56.157Z,35488.00
2023-03-28T07:33:49.585Z,36608.00
2023-03-28T07:34:48.581Z,37280.00
2023-03-28T07:35:48.609Z,36992.00
2023-03-28T07:36:48.552Z,38432.00
2023-03-28T07:37:48.565Z,40800.00
2023-03-28T07:38:49.522Z,40992.00
2023-03-28T07:39:48.516Z,39904.00
2023-03-28T07:40:48.518Z,39968.00
2023-03-28T07:41:48.495Z,40576.00
2023-03-28T07:42:48.496Z,38560.00
2023-03-28T07:43:48.478Z,37120.00
2023-03-28T07:44:48.464Z,37984.00
2023-03-28T07:45:48.464Z,39328.00
2023-03-28T07:46:48.457Z,40064.00
2023-03-28T07:47:48.563Z,37888.00
2023-03-28T07:48:48.450Z,38656.00
2023-03-28T07:49:48.465Z,40192.00
2023-03-28T07:50:48.396Z,39616.00
2023-03-28T07:51:48.382Z,39328.00
2023-03-28T07:52:48.437Z,40640.00
2023-03-28T07:53:48.364Z,43360.00
2023-03-28T07:54:48.356Z,44384.00
2023-03-28T07:55:55.277Z,44320.00
2023-03-28T07:56:49.368Z,44160.00
2023-03-28T07:57:48.343Z,43264.00
2023-03-28T07:58:48.317Z,42944.00
2023-03-28T07:59:48.303Z,42592.00
2023-03-28T08:00:48.300Z,41664.00
2023-03-28T08:01:48.328Z,44256.00
2023-03-28T08:02:48.474Z,44352.00
2023-03-28T08:03:48.361Z,44096.00
2023-03-28T08:04:48.268Z,45888.00
2023-03-28T08:05:48.270Z,46912.00
2023-03-28T08:06:48.229Z,47072.00
2023-03-28T08:07:48.236Z,48640.00
2023-03-28T08:08:48.206Z,48064.00
2023-03-28T08:09:48.198Z,47008.00
2023-03-28T08:10:48.202Z,45984.00
2023-03-28T08:11:48.172Z,46528.00
2023-03-28T08:12:48.162Z,45856.00
2023-03-28T08:13:48.149Z,44160.00
2023-03-28T08:14:48.165Z,43872.00
2023-03-28T08:15:48.179Z,46400.00
2023-03-28T08:16:48.120Z,49024.00
2023-03-28T08:17:48.114Z,49536.00
2023-03-28T08:18:57.068Z,49792.00
2023-03-28T08:19:49.082Z,51456.00
2023-03-28T08:20:48.144Z,53216.00
2023-03-28T08:21:48.073Z,53984.00
2023-03-28T08:22:48.058Z,54432.00
2023-03-28T08:23:48.061Z,54400.00
2023-03-28T08:24:48.034Z,54752.00
2023-03-28T08:25:48.015Z,55200.00
2023-03-28T08:26:48.817Z,55744.00
2023-03-28T08:27:47.994Z,58752.00
2023-03-28T08:28:48.007Z,59776.00
2023-03-28T08:29:47.979Z,57248.00
2023-03-28T08:30:47.990Z,57216.00
2023-03-28T08:31:48.086Z,57664.00
2023-03-28T08:32:48.867Z,60992.00
2023-03-28T08:33:48.010Z,60448.00
2023-03-28T08:34:47.923Z,60128.00
2023-03-28T08:35:47.953Z,61152.00
2023-03-28T08:36:47.934Z,60896.00
2023-03-28T08:37:47.922Z,59200.00
2023-03-28T08:38:47.926Z,57056.00
2023-03-28T08:39:47.874Z,59744.00
2023-03-28T08:40:47.862Z,57792.00
2023-03-28T08:41:47.848Z,55776.00
2023-03-28T08:42:47.848Z,56704.00
2023-03-28T08:43:47.865Z,57216.00
2023-03-28T08:44:48.545Z,56672.00
2023-03-28T08:45:47.846Z,57280.00
2023-03-28T08:46:47.812Z,58432.00
2023-03-28T08:47:47.821Z,59104.00
2023-03-28T08:48:47.828Z,59616.00
2023-03-28T08:49:47.775Z,61088.00
2023-03-28T08:50:47.792Z,61536.00
2023-03-28T08:51:47.781Z,60832.00
2023-03-28T08:52:47.771Z,59296.00
2023-03-28T08:53:47.722Z,57024.00
2023-03-28T08:54:47.717Z,56544.00
2023-03-28T08:55:47.722Z,57696.00
2023-03-28T08:56:47.742Z,58112.00
2023-03-28T08:57:47.693Z,60800.00
2023-03-28T08:58:47.830Z,60640.00
2023-03-28T08:59:47.661Z,56864.00
2023-03-28T09:00:47.866Z,56992.00
2023-03-28T09:01:47.664Z,58624.00
2023-03-28T09:02:49.825Z,64416.00
2023-03-28T09:03:47.836Z,62560.00
2023-03-28T09:04:47.610Z,17440.00
2023-03-28T09:05:47.603Z,9548.00
2023-03-28T09:06:47.594Z,9024.00
2023-03-28T09:07:47.579Z,13560.00
2023-03-28T09:08:47.634Z,12060.00
2023-03-28T09:09:47.557Z,9880.00
2023-03-28T09:10:47.579Z,8736.00
2023-03-28T09:11:47.532Z,6840.00
2023-03-28T09:12:47.529Z,7352.00
2023-03-28T09:13:47.531Z,7208.00
2023-03-28T09:14:48.620Z,6480.00
2023-03-28T09:15:47.492Z,6544.00
2023-03-28T09:16:47.600Z,6348.00
2023-03-28T09:17:47.529Z,6740.00
2023-03-28T09:18:47.481Z,5920.00
2023-03-28T09:19:49.010Z,5508.00
2023-03-28T09:20:47.435Z,4928.00
2023-03-28T09:21:47.422Z,4312.00
2023-03-28T09:22:47.419Z,3852.00
2023-03-28T09:23:47.695Z,3608.00
2023-03-28T09:24:47.416Z,3632.00
2023-03-28T09:25:47.379Z,4160.00
2023-03-28T09:26:47.373Z,4488.00
2023-03-28T09:27:47.357Z,4908.00
2023-03-28T09:28:47.363Z,5596.00
2023-03-28T09:29:47.337Z,6292.00
2023-03-28T09:30:47.331Z,6812.00
2023-03-28T09:31:47.362Z,5472.00
2023-03-28T09:32:47.398Z,5280.00
2023-03-28T09:33:47.317Z,6292.00
2023-03-28T09:34:47.298Z,10100.00
2023-03-28T09:35:47.303Z,57952.00
2023-03-28T09:36:49.898Z,7480.00
2023-03-28T09:37:47.253Z,6240.00
2023-03-28T09:38:47.262Z,9512.00
2023-03-28T09:39:47.227Z,73472.00
2023-03-28T09:40:47.250Z,13148.00
2023-03-28T09:41:47.220Z,67104.00
2023-03-28T09:42:47.195Z,72032.00
2023-03-28T09:43:47.237Z,18144.00
2023-03-28T09:44:53.621Z,8624.00
2023-03-28T09:45:48.198Z,8344.00
2023-03-28T09:46:47.166Z,8500.00
2023-03-28T09:47:47.198Z,8124.00
2023-03-28T09:48:47.243Z,7100.00
2023-03-28T09:49:47.118Z,8356.00
2023-03-28T09:50:47.106Z,10896.00
2023-03-28T09:51:47.096Z,79680.00
2023-03-28T09:52:47.091Z,20096.00
2023-03-28T09:53:47.094Z,7092.00
2023-03-28T09:54:47.070Z,6280.00
2023-03-28T09:55:58.048Z,5620.00
2023-03-28T09:56:48.134Z,6468.00
2023-03-28T09:57:47.034Z,8704.00
2023-03-28T09:58:47.032Z,9128.00
2023-03-28T09:59:47.014Z,16556.00
2023-03-28T10:00:47.030Z,80480.00
2023-03-28T10:01:47.034Z,10124.00
2023-03-28T10:02:47.021Z,83264.00
2023-03-28T10:03:47.002Z,79744.00
2023-03-28T10:04:47.038Z,22880.00
2023-03-28T10:05:46.949Z,8960.00
2023-03-28T10:06:46.936Z,7784.00
2023-03-28T10:07:46.929Z,8828.00
2023-03-28T10:08:46.934Z,68416.00
2023-03-28T10:09:46.906Z,72064.00
2023-03-28T10:10:46.892Z,74048.00
2023-03-28T10:11:46.878Z,27936.00
2023-03-28T10:12:46.888Z,8180.00
2023-03-28T10:13:46.874Z,7028.00
2023-03-28T10:14:46.900Z,5868.00
2023-03-28T10:15:46.883Z,6532.00
2023-03-28T10:16:46.827Z,8680.00
2023-03-28T10:17:46.910Z,37920.00
2023-03-28T10:18:46.835Z,6652.00
2023-03-28T10:19:46.797Z,6472.00
2023-03-28T10:20:46.780Z,9820.00
2023-03-28T10:21:46.775Z,14496.00
2023-03-28T10:22:46.765Z,6520.00
2023-03-28T10:23:46.770Z,5240.00
2023-03-28T10:24:46.739Z,4676.00
2023-03-28T10:25:46.833Z,4700.00
2023-03-28T10:26:46.799Z,5076.00
2023-03-28T10:27:46.707Z,7560.00
2023-03-28T10:28:46.734Z,6868.00
2023-03-28T10:29:46.683Z,84992.00
2023-03-28T10:30:46.689Z,42336.00
2023-03-28T10:31:46.707Z,11232.00
2023-03-28T10:32:46.677Z,6780.00
2023-03-28T10:33:46.661Z,6288.00
2023-03-28T10:34:46.638Z,8820.00
2023-03-28T10:35:46.664Z,16376.00
2023-03-28T10:36:46.609Z,83040.00
2023-03-28T10:37:46.602Z,75520.00
2023-03-28T10:38:46.613Z,80608.00
2023-03-28T10:39:46.575Z,87936.00
2023-03-28T10:40:46.603Z,79104.00
2023-03-28T10:41:46.559Z,81440.00
2023-03-28T10:42:46.549Z,75008.00
2023-03-28T10:43:46.561Z,71424.00
2023-03-28T10:44:46.554Z,68768.00
2023-03-28T10:45:46.514Z,66528.00
2023-03-28T10:46:46.562Z,8504.00
2023-03-28T10:47:46.534Z,21600.00
2023-03-28T10:48:46.515Z,10588.00
2023-03-28T10:49:46.486Z,10808.00
2023-03-28T10:50:46.462Z,8924.00
2023-03-28T10:51:46.451Z,8696.00
2023-03-28T10:52:46.524Z,7512.00
2023-03-28T10:53:46.447Z,8292.00
2023-03-28T10:54:46.420Z,9336.00
2023-03-28T10:55:46.413Z,7232.00
2023-03-28T10:56:46.455Z,7564.00
2023-03-28T10:57:46.397Z,7000.00
2023-03-28T10:58:46.408Z,6984.00
2023-03-28T10:59:46.368Z,6360.00
2023-03-28T11:00:46.397Z,5980.00
2023-03-28T11:01:46.399Z,5892.00
2023-03-28T11:02:46.410Z,6248.00
2023-03-28T11:03:46.456Z,5592.00
2023-03-28T11:04:46.323Z,6752.00
2023-03-28T11:05:54.887Z,6560.00
2023-03-28T11:06:47.297Z,6240.00
2023-03-28T11:07:46.282Z,5912.00
2023-03-28T11:08:46.306Z,6268.00
2023-03-28T11:09:46.256Z,5988.00
2023-03-28T11:10:46.246Z,6116.00
2023-03-28T11:11:46.250Z,6816.00
2023-03-28T11:13:46.234Z,7048.00
2023-03-28T11:14:46.248Z,7316.00
2023-03-28T11:15:46.203Z,6656.00
2023-03-28T11:16:46.209Z,6564.00
2023-03-28T11:17:46.217Z,6688.00
2023-03-28T11:18:46.179Z,5944.00
2023-03-28T11:19:46.145Z,5420.00
2023-03-28T11:20:46.139Z,6752.00
2023-03-28T11:21:46.131Z,6764.00
2023-03-28T11:22:55.496Z,6928.00
2023-03-28T11:23:47.138Z,6624.00
2023-03-28T11:24:46.095Z,6284.00
2023-03-28T11:25:46.083Z,6428.00
2023-03-28T11:26:46.071Z,6524.00
2023-03-28T11:27:46.084Z,6100.00
2023-03-28T11:28:46.720Z,5132.00
2023-03-28T11:29:46.060Z,5736.00
2023-03-28T11:30:46.028Z,5856.00
2023-03-28T11:31:46.054Z,5208.00
2023-03-28T11:32:46.060Z,5516.00
2023-03-28T11:33:46.006Z,6240.00
2023-03-28T11:34:45.994Z,6008.00
2023-03-28T11:35:46.000Z,6444.00
2023-03-28T11:36:45.966Z,5948.00
2023-03-28T11:37:45.956Z,6704.00
2023-03-28T11:38:45.951Z,6424.00
2023-03-28T11:39:45.929Z,6892.00
2023-03-28T11:40:45.938Z,7188.00
2023-03-28T11:41:45.914Z,6824.00
2023-03-28T11:42:45.900Z,6728.00
2023-03-28T11:43:45.901Z,6216.00
2023-03-28T11:44:45.895Z,5964.00
2023-03-28T11:45:51.962Z,5972.00
2023-03-28T11:46:46.896Z,6596.00
2023-03-28T11:47:45.919Z,6568.00
2023-03-28T11:48:45.853Z,6288.00
2023-03-28T11:49:45.840Z,5440.00
2023-03-28T11:50:45.820Z,5116.00
2023-03-28T11:51:45.826Z,5300.00
2023-03-28T11:52:45.799Z,4868.00
2023-03-28T11:53:45.805Z,4728.00
2023-03-28T11:54:45.770Z,4844.00
2023-03-28T11:55:45.760Z,4904.00
2023-03-28T11:56:45.819Z,4896.00
2023-03-28T11:57:45.735Z,4360.00
2023-03-28T11:58:45.728Z,3972.00
2023-03-28T11:59:45.750Z,4316.00
2023-03-28T12:00:45.738Z,3688.00
2023-03-28T12:01:45.717Z,4456.00
2023-03-28T12:02:45.799Z,4448.00
2023-03-28T12:03:45.819Z,4596.00
2023-03-28T12:04:45.716Z,4520.00
2023-03-28T12:05:45.650Z,4504.00
2023-03-28T12:06:55.810Z,4404.00
2023-03-28T12:07:46.630Z,4348.00
2023-03-28T12:08:45.615Z,4156.00
2023-03-28T12:09:45.630Z,4036.00
2023-03-28T12:10:45.592Z,4052.00
2023-03-28T12:11:45.595Z,4084.00
2023-03-28T12:12:45.573Z,4116.00
2023-03-28T12:13:47.427Z,4080.00
2023-03-28T12:14:45.562Z,3692.00
2023-03-28T12:15:45.540Z,3852.00
2023-03-28T12:16:45.563Z,3588.00
2023-03-28T12:17:45.528Z,4092.00
2023-03-28T12:18:45.504Z,3808.00
2023-03-28T12:19:45.579Z,3936.00
2023-03-28T12:20:45.504Z,3984.00
2023-03-28T12:21:45.881Z,3964.00
2023-03-28T12:22:45.460Z,4056.00
2023-03-28T12:23:45.460Z,3904.00
2023-03-28T12:24:45.462Z,3564.00
2023-03-28T12:25:45.430Z,3992.00
2023-03-28T12:26:45.443Z,3628.00
2023-03-28T12:27:45.408Z,3708.00